Latest Weather Observations for Noarlunga

IDS60801

Issued at 1:51 pm CDT Sunday 16 December 2018 (issued every 10 minutes, with the page automatically refreshed every 10 minutes)

About weather observations | Map of weather stations | Latest weather observations for SA | Other Formats
Station Details ID: 023885 Name: NOARLUNGA Lat: -35.16 Lon: 138.51 Height: 55.0 m
Data from the previous 72 hours. | See also: Recent months at Noarlunga
Date/Time
CDT
Temp
°C
App
Temp
°C
Dew
Point
°C
Rel
Hum
%
Delta-T
°C
Wind Press
QNH
hPa
Press
MSL
hPa
Rain since
9am
mm
Dir  Spd
km/h
Gust
km/h
Spd
kts
Gust
kts
16/01:30pm 18.3 16.7 15.0 81 1.9 W 17 24 9 13 - - 0.0
16/01:00pm 18.6 17.5 15.3 81 1.9 WSW 15 24 8 13 - - 0.0
16/12:30pm 18.6 17.5 15.3 81 1.9 W 15 26 8 14 - - 0.0
16/12:00pm 18.6 17.1 15.3 81 1.9 W 17 24 9 13 - - 0.0
16/11:30am 18.5 17.0 15.4 82 1.8 WSW 17 26 9 14 - - 0.0
16/11:00am 17.7 16.1 15.1 85 1.5 WSW 17 28 9 15 - - 0.0
16/10:30am 17.5 16.6 15.8 90 1.0 WSW 15 22 8 12 - - 0.0
16/10:00am 17.1 16.4 15.4 90 1.0 WSW 13 20 7 11 - - 0.0
16/09:30am 17.1 16.3 15.1 88 1.2 W 13 20 7 11 - - 0.0
16/09:00am 17.1 16.7 15.1 88 1.2 WSW 11 17 6 9 - - 0.0
16/08:30am 16.9 16.5 15.1 89 1.0 WSW 11 20 6 11 - - 0.0
16/08:00am 16.7 16.3 15.2 91 0.9 SW 11 17 6 9 - - 0.0
16/07:30am 16.6 15.8 15.1 91 0.9 SW 13 20 7 11 - - 0.0
16/07:00am 16.6 15.4 15.1 91 0.9 WSW 15 24 8 13 - - 0.0
16/06:30am 16.5 15.3 15.0 91 0.9 WSW 15 28 8 15 - - 0.0
16/06:00am 16.7 15.6 15.2 91 0.9 WSW 15 20 8 11 - - 0.0
16/05:30am 16.7 15.9 15.1 90 0.9 WSW 13 22 7 12 - - 0.0
16/05:00am 16.8 16.3 15.0 89 1.0 WSW 11 19 6 10 - - 0.0
16/04:30am 16.8 16.4 15.2 90 0.9 WSW 11 19 6 10 - - 0.0
16/04:00am 16.7 15.9 15.1 90 0.9 W 13 19 7 10 - - 0.0
16/03:30am 16.7 16.3 15.1 90 0.9 WSW 11 20 6 11 - - 0.0
16/03:00am 16.7 16.7 15.1 90 0.9 WSW 9 17 5 9 - - 0.0
16/02:30am 16.6 16.5 15.0 90 0.9 W 9 13 5 7 - - 0.0
16/02:00am 16.7 16.7 15.1 90 0.9 WSW 9 15 5 8 - - 0.0
16/01:30am 16.9 16.1 15.1 89 1.0 WSW 13 22 7 12 - - 0.0
16/01:00am 17.0 16.2 15.0 88 1.2 WSW 13 22 7 12 - - 0.0
16/12:30am 17.2 16.7 15.0 87 1.3 W 11 19 6 10 - - 0.0
16/12:00am 17.5 17.4 15.0 85 1.5 WSW 9 17 5 9 - - 0.0
 
Date/Time
CDT
Temp
°C
App
Temp
°C
Dew
Point
°C
Rel
Hum
%
Delta-T
°C
Wind Press
QNH
hPa
Press
MSL
hPa
Rain since
9am
mm
Dir  Spd
km/h
Gust
km/h
Spd
kts
Gust
kts
15/11:30pm 17.7 17.2 14.8 83 1.7 WSW 11 17 6 9 - - 0.0
15/11:00pm 17.8 16.5 14.9 83 1.7 WSW 15 20 8 11 - - 0.0
15/10:30pm 18.0 17.5 14.9 82 1.8 WSW 11 20 6 11 - - 0.0
15/10:00pm 17.9 18.5 15.2 84 1.6 W 6 13 3 7 - - 0.0
15/09:30pm 17.8 16.9 14.9 83 1.7 WSW 13 20 7 11 - - 0.0
15/09:00pm 18.3 17.8 15.0 81 1.9 WSW 11 20 6 11 - - 0.0
15/08:30pm 18.6 17.7 14.9 79 2.2 WSW 13 22 7 12 - - 0.0
15/08:00pm 19.4 18.4 14.6 74 2.8 WSW 13 22 7 12 - - 0.0
15/07:30pm 20.3 19.2 14.4 69 3.4 WSW 13 19 7 10 - - 0.0
15/07:00pm 20.9 19.3 13.8 64 4.1 WSW 15 22 8 12 - - 0.0
15/06:30pm 21.4 20.3 14.3 64 4.2 SW 13 20 7 11 - - 0.0
15/06:00pm 21.8 20.7 14.4 63 4.3 SW 13 20 7 11 - - 0.0
15/05:30pm 22.1 21.3 15.2 65 4.1 SW 13 20 7 11 - - 0.0
15/05:00pm 22.1 21.0 14.2 61 4.6 WSW 13 20 7 11 - - 0.0
15/04:30pm 21.5 20.5 14.6 65 4.1 WSW 13 20 7 11 - - 0.0
15/04:00pm 22.3 21.8 14.9 63 4.4 WSW 11 19 6 10 - - 0.0
15/03:30pm 22.1 21.1 14.7 63 4.4 WSW 13 19 7 10 - - 0.0
15/03:00pm 21.2 20.5 14.4 65 4.0 W 11 17 6 9 - - 0.0
15/02:30pm 21.4 20.8 14.6 65 4.0 WSW 11 17 6 9 - - 0.0
15/02:00pm 21.6 20.8 15.2 67 3.8 WSW 13 20 7 11 - - 0.0
15/01:30pm 20.9 19.0 14.3 66 3.9 W 17 24 9 13 - - 0.0
15/01:00pm 21.3 20.7 14.5 65 4.0 WNW 11 19 6 10 - - 0.0
15/12:30pm 21.1 20.6 13.8 63 4.2 W 9 17 5 9 - - 0.0
15/12:00pm 20.9 20.2 14.3 66 3.9 W 11 20 6 11 - - 0.0
15/11:30am 20.6 19.8 14.0 66 3.8 WNW 11 19 6 10 - - 0.0
15/11:00am 20.5 20.2 14.4 68 3.6 W 9 13 5 7 - - 0.0
15/10:30am 21.5 22.2 14.4 64 4.2 E 4 6 2 3 - - 0.0
15/10:00am 20.4 20.3 13.8 66 3.8 ENE 7 13 4 7 - - 0.0
15/09:30am 19.8 19.7 14.0 69 3.4 ESE 7 13 4 7 - - 0.0
15/09:00am 19.1 19.1 13.5 70 3.2 SE 6 9 3 5 - - 0.8
15/08:30am 18.3 17.6 14.2 77 2.4 E 11 17 6 9 - - 0.8
15/08:00am 17.4 17.2 13.7 79 2.1 ESE 7 11 4 6 - - 0.8
15/07:30am 17.1 17.2 13.8 81 1.9 S 6 9 3 5 - - 0.8
15/07:00am 16.7 17.5 13.8 83 1.6 W 2 6 1 3 - - 0.8
15/06:30am 16.2 16.6 13.7 85 1.4 SE 4 7 2 4 - - 0.8
15/06:00am 15.7 16.0 13.4 86 1.3 SE 4 9 2 5 - - 0.8
15/05:30am 15.6 16.6 13.3 86 1.3 CALM 0 7 0 4 - - 0.8
15/05:00am 15.2 14.9 12.7 85 1.4 SSE 6 7 3 4 - - 0.8
15/04:30am 15.7 15.6 13.2 85 1.4 SW 6 7 3 4 - - 0.8
15/04:00am 15.8 16.0 13.1 84 1.5 S 4 6 2 3 - - 0.8
15/03:30am 15.9 15.6 13.2 84 1.5 SSE 7 13 4 7 - - 0.8
15/03:00am 15.9 15.5 13.0 83 1.6 SE 7 11 4 6 - - 0.8
15/02:30am 16.1 15.4 13.2 83 1.6 SSE 9 13 5 7 - - 0.8
15/02:00am 16.3 15.6 13.2 82 1.7 SSE 9 19 5 10 - - 0.8
15/01:30am 16.2 13.6 13.3 83 1.6 SE 19 24 10 13 - - 0.8
15/01:00am 16.3 15.9 13.0 81 1.8 SSE 7 13 4 7 - - 0.8
15/12:30am 16.4 14.9 13.1 81 1.8 SSE 13 20 7 11 - - 0.8
15/12:00am 16.3 15.9 13.0 81 1.8 SSE 7 13 4 7 - - 0.8
 
Date/Time
CDT
Temp
°C
App
Temp
°C
Dew
Point
°C
Rel
Hum
%
Delta-T
°C
Wind Press
QNH
hPa
Press
MSL
hPa
Rain since
9am
mm
Dir  Spd
km/h
Gust
km/h
Spd
kts
Gust
kts
14/11:30pm 16.1 15.3 13.0 82 1.7 SSE 9 15 5 8 - - 0.8
14/11:00pm 16.4 14.9 13.1 81 1.8 SE 13 24 7 13 - - 0.8
14/10:30pm 16.6 14.3 13.1 80 2.0 SSE 17 24 9 13 - - 0.8
14/10:00pm 16.9 15.1 13.2 79 2.1 SSE 15 22 8 12 - - 0.8
14/09:30pm 16.9 13.0 13.2 79 2.1 SSE 26 35 14 19 - - 0.8
14/09:00pm 16.7 13.9 13.2 80 2.0 SSE 20 35 11 19 - - 0.8
14/08:30pm 16.9 13.4 13.4 80 2.0 SSE 24 32 13 17 - - 0.8
14/08:00pm 17.1 14.1 13.6 80 2.0 SSE 22 33 12 18 - - 0.8
14/07:30pm 17.1 14.1 13.6 80 2.0 SSE 22 33 12 18 - - 0.8
14/07:00pm 17.0 12.1 13.7 81 1.9 SSE 32 43 17 23 - - 0.8
14/06:39pm 17.0 12.5 13.7 81 1.9 SSE 30 50 16 27 - - 0.8
14/06:30pm 17.2 12.7 13.7 80 2.0 SSE 30 43 16 23 - - 0.8
14/06:00pm 17.6 11.7 13.5 77 2.3 SSE 37 50 20 27 - - 0.8
14/05:35pm 17.4 13.4 14.1 81 1.9 S 28 46 15 25 - - 0.8
14/05:30pm 17.2 13.6 14.1 82 1.8 S 26 37 14 20 - - 0.8
14/05:00pm 17.3 12.2 13.8 80 2.0 SSE 33 48 18 26 - - 0.8
14/04:38pm 17.3 12.8 13.8 80 2.0 S 30 54 16 29 - - 0.8
14/04:30pm 17.5 12.8 14.2 81 1.9 SSE 32 46 17 25 - - 0.8
14/04:02pm 17.9 12.5 14.0 78 2.2 SSE 35 54 19 29 - - 0.8
14/04:00pm 18.1 12.4 14.2 78 2.2 SSE 37 54 20 29 - - 0.8
14/03:43pm 18.6 14.0 14.5 77 2.4 SSE 32 50 17 27 - - 0.8
14/03:30pm 18.0 13.2 14.5 80 2.0 S 33 52 18 28 - - 0.8
14/03:00pm 18.2 13.6 14.5 79 2.1 SSE 32 46 17 25 - - 0.8
14/02:30pm 18.7 14.1 14.6 77 2.4 S 32 44 17 24 - - 0.8
14/02:00pm 19.1 14.3 15.6 80 2.1 SSE 35 48 19 26 - - 0.8
14/01:30pm 18.1 13.2 15.2 83 1.7 SSE 35 52 19 28 - - 0.8
14/01:06pm 17.5 12.5 15.1 86 1.4 SSE 35 56 19 30 - - 0.8
14/01:00pm 17.5 13.1 15.1 86 1.4 SSE 32 50 17 27 - - 0.8
14/12:58pm 17.4 13.7 15.0 86 1.4 SSE 28 48 15 26 - - 0.8
14/12:30pm 17.6 16.0 14.9 84 1.6 SSE 17 28 9 15 - - 0.8
14/12:00pm 17.9 17.0 15.9 88 1.2 SSE 15 22 8 12 - - 0.8
14/11:30am 17.2 15.7 15.4 89 1.1 SSE 17 24 9 13 - - 0.8
14/11:00am 16.1 14.6 14.3 89 1.0 SE 15 19 8 10 - - 0.8
14/10:30am 15.6 12.1 13.4 87 1.2 SE 24 35 13 19 - - 0.6
14/10:00am 16.8 12.7 14.8 88 1.2 SSE 30 43 16 23 - - 0.0
14/09:30am 16.7 12.1 14.5 87 1.3 SSE 32 54 17 29 - - 0.0
14/09:29am 16.8 12.6 14.6 87 1.3 SSE 30 54 16 29 - - 0.0
14/09:00am 16.3 12.0 14.3 88 1.1 S 30 41 16 22 - - 5.8
14/08:30am 15.7 11.2 13.7 88 1.1 S 30 44 16 24 - - 5.8
14/08:00am 15.1 10.8 13.1 88 1.1 S 28 48 15 26 - - 5.8
14/07:54am 15.0 10.6 13.0 88 1.1 S 28 48 15 26 - - 5.8
14/07:30am 14.8 11.5 12.8 88 1.1 SSW 22 37 12 20 - - 5.8
14/07:00am 14.7 11.0 12.6 87 1.2 SSW 24 37 13 20 - - 5.6
14/06:30am 14.5 10.7 12.4 87 1.1 SSW 24 39 13 21 - - 5.0
14/06:00am 14.3 11.5 12.5 89 1.0 SSW 19 32 10 17 - - 4.8
14/05:30am 13.9 10.3 11.9 88 1.1 SSW 22 37 12 20 - - 4.2
14/05:00am 13.6 10.4 11.8 89 1.0 SW 20 39 11 21 - - 3.0
14/04:30am 13.3 9.6 11.5 89 1.0 SSW 22 37 12 20 - - 2.6
14/04:00am 13.1 9.3 11.3 89 1.0 SW 22 43 12 23 - - 2.4
14/03:30am 12.9 8.3 11.1 89 0.9 SW 26 43 14 23 - - 2.2
14/03:00am 12.7 8.4 10.8 88 1.0 SW 24 48 13 26 - - 1.8
14/02:30am 12.8 8.5 10.9 88 1.0 SSW 24 46 13 25 - - 1.6
14/02:00am 12.7 9.2 10.8 88 1.0 SSW 20 37 11 20 - - 1.6
14/01:30am 12.7 7.8 10.1 84 1.3 SW 26 48 14 26 - - 1.4
14/01:01am 12.6 7.3 9.8 83 1.4 SW 28 46 15 25 - - 1.4
14/01:00am 12.7 7.8 9.9 83 1.4 SW 26 46 14 25 - - 1.4
14/12:30am 13.1 6.8 8.8 75 2.2 SW 32 54 17 29 - - 1.2
14/12:01am 13.6 7.4 7.8 68 2.9 SW 30 48 16 26 - - 1.2
14/12:00am 13.6 7.4 7.8 68 2.9 SW 30 46 16 25 - - 1.2
 
Date/Time
CDT
Temp
°C
App
Temp
°C
Dew
Point
°C
Rel
Hum
%
Delta-T
°C
Wind Press
QNH
hPa
Press
MSL
hPa
Rain since
9am
mm
Dir  Spd
km/h
Gust
km/h
Spd
kts
Gust
kts
13/11:36pm 13.7 7.7 7.2 65 3.2 SSW 28 46 15 25 - - 1.2
13/11:30pm 13.8 8.9 7.1 64 3.3 SSW 22 37 12 20 - - 1.2
13/11:08pm 14.0 7.8 6.1 59 3.8 SW 28 50 15 27 - - 1.2
13/11:00pm 14.1 9.4 6.2 59 3.8 SW 20 41 11 22 - - 1.2
13/10:30pm 13.9 8.3 7.0 63 3.4 SW 26 48 14 26 - - 1.2
13/10:00pm 13.6 8.8 7.4 66 3.0 SSW 22 37 12 20 - - 1.2
13/09:30pm 13.4 7.4 7.2 66 3.0 SSW 28 41 15 22 - - 1.2
13/09:00pm 13.7 8.0 6.6 62 3.4 SSW 26 46 14 25 - - 1.2
13/08:30pm 13.8 8.4 6.4 61 3.6 SSW 24 43 13 23 - - 1.2
13/08:06pm 13.6 7.4 6.2 61 3.5 SSW 28 50 15 27 - - 1.2
13/08:00pm 13.5 9.0 6.8 64 3.2 SSW 20 43 11 23 - - 1.2
13/07:30pm 13.2 6.7 6.3 63 3.3 SSW 30 50 16 27 - - 1.2
13/07:21pm 14.2 7.3 4.8 53 4.4 SSW 30 50 16 27 - - 1.2
13/07:00pm 14.6 7.8 5.1 53 4.5 SSW 30 46 16 25 - - 1.2
13/06:58pm 14.5 8.0 4.8 52 4.5 SSW 28 52 15 28 - - 1.2
13/06:33pm 15.1 8.8 5.9 54 4.4 SW 28 50 15 27 - - 1.2
13/06:30pm 15.4 9.7 6.7 56 4.3 SW 26 50 14 27 - - 1.2
13/06:12pm 15.4 9.3 6.4 55 4.4 SW 28 48 15 26 - - 1.2
13/06:00pm 13.9 8.2 6.5 61 3.6 SSW 26 46 14 25 - - 1.2
13/05:30pm 14.0 6.6 5.1 55 4.2 SW 33 57 18 31 - - 1.2
13/05:00pm 14.9 7.0 2.4 43 5.6 SSW 33 54 18 29 - - 1.2
13/04:33pm 16.1 9.2 2.5 40 6.1 SW 28 48 15 26 - - 1.2
13/04:30pm 16.2 8.9 2.6 40 6.1 SW 30 48 16 26 - - 1.2
13/04:00pm 15.7 9.8 3.8 45 5.5 SW 24 37 13 20 - - 1.2
13/03:30pm 14.2 7.8 7.0 62 3.5 SW 30 48 16 26 - - 1.2
13/03:25pm 13.5 7.6 7.5 67 2.9 SW 28 48 15 26 - - 1.2
13/03:00pm 12.1 6.5 7.2 72 2.4 SSW 26 46 14 25 - - 1.2
13/02:30pm 14.1 7.0 6.5 60 3.7 SSW 33 56 18 30 - - 1.0
13/02:00pm 13.1 6.1 6.9 66 3.0 SSW 33 56 18 30 - - 1.0

Other Formats:

Comma delimited format used in spreadsheet applications
http://www.bom.gov.au/fwo/IDS60801/IDS60801.94808.axf

JavaScript Object Notation format (JSON) in row-major order
http://www.bom.gov.au/fwo/IDS60801/IDS60801.94808.json